sensor_id;sensor_type;location;lat;lon;timestamp;P1;durP1;ratioP1;P2;durP2;ratioP2
3101;SDS011;1561;42.666;23.392;2023-05-07T00:00:34;7.23;;;6.53;;
3101;SDS011;1561;42.666;23.392;2023-05-07T00:03:01;7.50;;;6.33;;
3101;SDS011;1561;42.666;23.392;2023-05-07T00:05:28;6.57;;;5.97;;
3101;SDS011;1561;42.666;23.392;2023-05-07T00:07:55;7.63;;;6.80;;
3101;SDS011;1561;42.666;23.392;2023-05-07T00:10:29;8.10;;;7.27;;
3101;SDS011;1561;42.666;23.392;2023-05-07T00:12:55;6.40;;;5.90;;
3101;SDS011;1561;42.666;23.392;2023-05-07T00:15:22;6.40;;;5.80;;
3101;SDS011;1561;42.666;23.392;2023-05-07T00:17:49;6.60;;;6.00;;
3101;SDS011;1561;42.666;23.392;2023-05-07T00:20:19;9.40;;;5.83;;
3101;SDS011;1561;42.666;23.392;2023-05-07T00:22:50;8.33;;;6.27;;
3101;SDS011;1561;42.666;23.392;2023-05-07T00:25:16;8.00;;;6.90;;
3101;SDS011;1561;42.666;23.392;2023-05-07T00:27:48;11.50;;;7.37;;
3101;SDS011;1561;42.666;23.392;2023-05-07T00:30:16;47.70;;;31.87;;
3101;SDS011;1561;42.666;23.392;2023-05-07T00:32:48;24.80;;;15.40;;
3101;SDS011;1561;42.666;23.392;2023-05-07T00:35:15;11.53;;;8.80;;
3101;SDS011;1561;42.666;23.392;2023-05-07T00:37:44;15.00;;;11.40;;
3101;SDS011;1561;42.666;23.392;2023-05-07T00:40:14;33.10;;;27.50;;
3101;SDS011;1561;42.666;23.392;2023-05-07T00:42:42;33.73;;;28.23;;
3101;SDS011;1561;42.666;23.392;2023-05-07T00:45:13;13.50;;;9.73;;
3101;SDS011;1561;42.666;23.392;2023-05-07T00:47:40;70.80;;;38.70;;
3101;SDS011;1561;42.666;23.392;2023-05-07T00:50:12;14.43;;;8.30;;
3101;SDS011;1561;42.666;23.392;2023-05-07T00:52:52;8.20;;;6.87;;
3101;SDS011;1561;42.666;23.392;2023-05-07T00:55:20;7.93;;;7.13;;
3101;SDS011;1561;42.666;23.392;2023-05-07T00:57:50;13.43;;;9.13;;
3101;SDS011;1561;42.666;23.392;2023-05-07T01:00:40;16.97;;;10.80;;
3101;SDS011;1561;42.666;23.392;2023-05-07T01:03:07;10.53;;;6.47;;
3101;SDS011;1561;42.666;23.392;2023-05-07T01:05:34;11.07;;;7.87;;
3101;SDS011;1561;42.666;23.392;2023-05-07T01:08:21;8.73;;;7.80;;
3101;SDS011;1561;42.666;23.392;2023-05-07T01:10:53;9.40;;;7.70;;
3101;SDS011;1561;42.666;23.392;2023-05-07T01:13:24;10.00;;;7.47;;
3101;SDS011;1561;42.666;23.392;2023-05-07T01:16:02;8.47;;;7.67;;
3101;SDS011;1561;42.666;23.392;2023-05-07T01:18:34;9.80;;;8.70;;
3101;SDS011;1561;42.666;23.392;2023-05-07T01:21:14;8.90;;;8.07;;
3101;SDS011;1561;42.666;23.392;2023-05-07T01:23:51;23.60;;;14.83;;
3101;SDS011;1561;42.666;23.392;2023-05-07T01:26:21;8.90;;;8.00;;
3101;SDS011;1561;42.666;23.392;2023-05-07T01:28:50;10.47;;;8.90;;
3101;SDS011;1561;42.666;23.392;2023-05-07T01:31:18;13.00;;;9.87;;
3101;SDS011;1561;42.666;23.392;2023-05-07T01:33:49;8.50;;;7.63;;
3101;SDS011;1561;42.666;23.392;2023-05-07T01:36:17;8.57;;;7.77;;
3101;SDS011;1561;42.666;23.392;2023-05-07T01:38:58;13.60;;;9.73;;
3101;SDS011;1561;42.666;23.392;2023-05-07T01:41:25;19.53;;;12.67;;
3101;SDS011;1561;42.666;23.392;2023-05-07T01:43:54;11.77;;;10.23;;
3101;SDS011;1561;42.666;23.392;2023-05-07T01:46:22;12.77;;;10.53;;
3101;SDS011;1561;42.666;23.392;2023-05-07T01:48:56;10.80;;;9.40;;
3101;SDS011;1561;42.666;23.392;2023-05-07T01:51:24;11.37;;;10.23;;
3101;SDS011;1561;42.666;23.392;2023-05-07T01:53:52;12.87;;;10.27;;
3101;SDS011;1561;42.666;23.392;2023-05-07T01:56:27;18.43;;;11.33;;
3101;SDS011;1561;42.666;23.392;2023-05-07T01:58:55;10.80;;;9.57;;
3101;SDS011;1561;42.666;23.392;2023-05-07T02:01:27;12.83;;;10.50;;
3101;SDS011;1561;42.666;23.392;2023-05-07T02:03:54;12.83;;;11.43;;
3101;SDS011;1561;42.666;23.392;2023-05-07T02:06:24;15.93;;;12.33;;
3101;SDS011;1561;42.666;23.392;2023-05-07T02:08:53;16.70;;;13.93;;
3101;SDS011;1561;42.666;23.392;2023-05-07T02:11:22;13.40;;;10.80;;
3101;SDS011;1561;42.666;23.392;2023-05-07T02:13:57;14.40;;;12.53;;
3101;SDS011;1561;42.666;23.392;2023-05-07T02:16:25;24.40;;;15.53;;
3101;SDS011;1561;42.666;23.392;2023-05-07T02:18:55;22.20;;;15.67;;
3101;SDS011;1561;42.666;23.392;2023-05-07T02:21:25;16.10;;;13.30;;
3101;SDS011;1561;42.666;23.392;2023-05-07T02:23:55;14.63;;;9.83;;
3101;SDS011;1561;42.666;23.392;2023-05-07T02:26:29;13.10;;;10.80;;
3101;SDS011;1561;42.666;23.392;2023-05-07T02:28:58;15.53;;;12.00;;
3101;SDS011;1561;42.666;23.392;2023-05-07T02:31:28;16.47;;;13.20;;
3101;SDS011;1561;42.666;23.392;2023-05-07T02:33:58;17.43;;;14.77;;
3101;SDS011;1561;42.666;23.392;2023-05-07T02:36:27;17.50;;;14.10;;
3101;SDS011;1561;42.666;23.392;2023-05-07T02:38:55;20.27;;;14.60;;
3101;SDS011;1561;42.666;23.392;2023-05-07T02:41:28;17.60;;;13.90;;
3101;SDS011;1561;42.666;23.392;2023-05-07T02:43:54;15.63;;;13.93;;
3101;SDS011;1561;42.666;23.392;2023-05-07T02:46:26;17.67;;;13.93;;
3101;SDS011;1561;42.666;23.392;2023-05-07T02:48:59;17.63;;;14.50;;
3101;SDS011;1561;42.666;23.392;2023-05-07T02:51:26;18.40;;;14.30;;
3101;SDS011;1561;42.666;23.392;2023-05-07T02:53:54;17.07;;;13.90;;
3101;SDS011;1561;42.666;23.392;2023-05-07T02:56:27;23.53;;;15.30;;
3101;SDS011;1561;42.666;23.392;2023-05-07T02:58:55;17.30;;;15.20;;
3101;SDS011;1561;42.666;23.392;2023-05-07T03:01:25;20.77;;;15.40;;
3101;SDS011;1561;42.666;23.392;2023-05-07T03:04:07;24.70;;;17.13;;
3101;SDS011;1561;42.666;23.392;2023-05-07T03:06:34;20.47;;;16.80;;
3101;SDS011;1561;42.666;23.392;2023-05-07T03:09:06;21.77;;;16.43;;
3101;SDS011;1561;42.666;23.392;2023-05-07T03:11:33;20.63;;;16.90;;
3101;SDS011;1561;42.666;23.392;2023-05-07T03:14:01;23.20;;;16.40;;
3101;SDS011;1561;42.666;23.392;2023-05-07T03:16:33;21.80;;;17.37;;
3101;SDS011;1561;42.666;23.392;2023-05-07T03:19:00;24.47;;;17.30;;
3101;SDS011;1561;42.666;23.392;2023-05-07T03:21:27;22.30;;;17.23;;
3101;SDS011;1561;42.666;23.392;2023-05-07T03:23:54;23.83;;;18.60;;
3101;SDS011;1561;42.666;23.392;2023-05-07T03:26:35;22.97;;;15.93;;
3101;SDS011;1561;42.666;23.392;2023-05-07T03:29:04;19.20;;;15.70;;
3101;SDS011;1561;42.666;23.392;2023-05-07T03:31:32;18.50;;;16.00;;
3101;SDS011;1561;42.666;23.392;2023-05-07T03:34:04;19.90;;;16.50;;
3101;SDS011;1561;42.666;23.392;2023-05-07T03:36:35;20.53;;;16.27;;
3101;SDS011;1561;42.666;23.392;2023-05-07T03:39:08;22.47;;;16.40;;
3101;SDS011;1561;42.666;23.392;2023-05-07T03:41:37;20.27;;;14.87;;
3101;SDS011;1561;42.666;23.392;2023-05-07T03:44:08;29.70;;;23.27;;
3101;SDS011;1561;42.666;23.392;2023-05-07T03:46:36;20.33;;;16.60;;
3101;SDS011;1561;42.666;23.392;2023-05-07T03:49:05;30.93;;;23.97;;
3101;SDS011;1561;42.666;23.392;2023-05-07T03:51:39;34.27;;;23.23;;
3101;SDS011;1561;42.666;23.392;2023-05-07T03:54:10;42.37;;;30.17;;
3101;SDS011;1561;42.666;23.392;2023-05-07T03:56:36;34.13;;;26.57;;
3101;SDS011;1561;42.666;23.392;2023-05-07T03:59:06;28.03;;;21.63;;
3101;SDS011;1561;42.666;23.392;2023-05-07T04:01:33;19.73;;;13.30;;
3101;SDS011;1561;42.666;23.392;2023-05-07T04:04:06;17.97;;;14.37;;
3101;SDS011;1561;42.666;23.392;2023-05-07T04:06:34;17.60;;;13.40;;
3101;SDS011;1561;42.666;23.392;2023-05-07T04:09:02;15.97;;;13.10;;
3101;SDS011;1561;42.666;23.392;2023-05-07T04:11:29;18.90;;;13.50;;
3101;SDS011;1561;42.666;23.392;2023-05-07T04:13:58;14.00;;;12.70;;
3101;SDS011;1561;42.666;23.392;2023-05-07T04:16:25;14.80;;;13.30;;
3101;SDS011;1561;42.666;23.392;2023-05-07T04:18:52;17.33;;;14.23;;
3101;SDS011;1561;42.666;23.392;2023-05-07T04:24:08;15.60;;;13.50;;
3101;SDS011;1561;42.666;23.392;2023-05-07T04:26:35;14.20;;;12.80;;
3101;SDS011;1561;42.666;23.392;2023-05-07T04:29:08;15.70;;;13.73;;
3101;SDS011;1561;42.666;23.392;2023-05-07T04:31:36;14.93;;;13.43;;
3101;SDS011;1561;42.666;23.392;2023-05-07T04:34:03;14.50;;;13.10;;
3101;SDS011;1561;42.666;23.392;2023-05-07T04:36:31;15.00;;;12.50;;
3101;SDS011;1561;42.666;23.392;2023-05-07T04:38:58;14.00;;;12.45;;
3101;SDS011;1561;42.666;23.392;2023-05-07T04:41:35;14.38;;;12.95;;
3101;SDS011;1561;42.666;23.392;2023-05-07T04:44:03;16.80;;;15.00;;
3101;SDS011;1561;42.666;23.392;2023-05-07T04:46:31;15.85;;;13.77;;
3101;SDS011;1561;42.666;23.392;2023-05-07T04:49:09;16.45;;;14.52;;
3101;SDS011;1561;42.666;23.392;2023-05-07T04:51:39;17.17;;;15.02;;
3101;SDS011;1561;42.666;23.392;2023-05-07T04:54:09;13.70;;;12.40;;
3101;SDS011;1561;42.666;23.392;2023-05-07T04:56:42;18.13;;;14.30;;
3101;SDS011;1561;42.666;23.392;2023-05-07T04:59:09;15.95;;;14.18;;
3101;SDS011;1561;42.666;23.392;2023-05-07T05:01:37;14.60;;;13.13;;
3101;SDS011;1561;42.666;23.392;2023-05-07T05:04:05;13.18;;;11.98;;
3101;SDS011;1561;42.666;23.392;2023-05-07T05:06:33;13.50;;;12.30;;
3101;SDS011;1561;42.666;23.392;2023-05-07T05:09:04;17.00;;;13.50;;
3101;SDS011;1561;42.666;23.392;2023-05-07T05:11:36;18.33;;;13.52;;
3101;SDS011;1561;42.666;23.392;2023-05-07T05:14:07;12.23;;;11.13;;
3101;SDS011;1561;42.666;23.392;2023-05-07T05:16:35;13.02;;;11.85;;
3101;SDS011;1561;42.666;23.392;2023-05-07T05:19:10;13.55;;;12.35;;
3101;SDS011;1561;42.666;23.392;2023-05-07T05:21:39;16.20;;;13.23;;
3101;SDS011;1561;42.666;23.392;2023-05-07T05:24:06;14.07;;;12.57;;
3101;SDS011;1561;42.666;23.392;2023-05-07T05:26:39;13.85;;;12.55;;
3101;SDS011;1561;42.666;23.392;2023-05-07T05:29:07;15.10;;;13.38;;
3101;SDS011;1561;42.666;23.392;2023-05-07T05:31:39;13.85;;;12.63;;
3101;SDS011;1561;42.666;23.392;2023-05-07T05:34:07;13.05;;;11.82;;
3101;SDS011;1561;42.666;23.392;2023-05-07T05:36:36;13.88;;;12.60;;
3101;SDS011;1561;42.666;23.392;2023-05-07T05:39:03;15.20;;;12.50;;
3101;SDS011;1561;42.666;23.392;2023-05-07T05:41:38;14.23;;;12.77;;
3101;SDS011;1561;42.666;23.392;2023-05-07T05:44:06;25.08;;;19.00;;
3101;SDS011;1561;42.666;23.392;2023-05-07T05:46:43;27.95;;;22.00;;
3101;SDS011;1561;42.666;23.392;2023-05-07T05:49:10;13.88;;;12.48;;
3101;SDS011;1561;42.666;23.392;2023-05-07T05:51:39;14.07;;;12.63;;
3101;SDS011;1561;42.666;23.392;2023-05-07T05:54:06;12.27;;;10.98;;
3101;SDS011;1561;42.666;23.392;2023-05-07T05:56:33;12.52;;;11.43;;
3101;SDS011;1561;42.666;23.392;2023-05-07T05:59:03;13.68;;;12.57;;
3101;SDS011;1561;42.666;23.392;2023-05-07T06:01:32;13.75;;;12.40;;
3101;SDS011;1561;42.666;23.392;2023-05-07T06:04:08;14.25;;;12.93;;
3101;SDS011;1561;42.666;23.392;2023-05-07T06:06:35;13.40;;;12.13;;
3101;SDS011;1561;42.666;23.392;2023-05-07T06:09:04;15.25;;;13.80;;
3101;SDS011;1561;42.666;23.392;2023-05-07T06:11:40;14.05;;;12.65;;
3101;SDS011;1561;42.666;23.392;2023-05-07T06:14:07;13.38;;;11.98;;
3101;SDS011;1561;42.666;23.392;2023-05-07T06:16:34;12.35;;;11.10;;
3101;SDS011;1561;42.666;23.392;2023-05-07T06:19:03;15.05;;;12.88;;
3101;SDS011;1561;42.666;23.392;2023-05-07T06:21:31;13.20;;;12.00;;
3101;SDS011;1561;42.666;23.392;2023-05-07T06:23:58;12.50;;;11.40;;
3101;SDS011;1561;42.666;23.392;2023-05-07T06:26:25;13.65;;;12.27;;
3101;SDS011;1561;42.666;23.392;2023-05-07T06:28:52;13.30;;;12.00;;
3101;SDS011;1561;42.666;23.392;2023-05-07T06:31:18;14.70;;;13.23;;
3101;SDS011;1561;42.666;23.392;2023-05-07T06:33:46;14.25;;;11.60;;
3101;SDS011;1561;42.666;23.392;2023-05-07T06:36:15;12.90;;;11.60;;
3101;SDS011;1561;42.666;23.392;2023-05-07T06:38:49;11.85;;;10.85;;
3101;SDS011;1561;42.666;23.392;2023-05-07T06:41:19;13.55;;;12.18;;
3101;SDS011;1561;42.666;23.392;2023-05-07T06:43:49;12.93;;;11.63;;
3101;SDS011;1561;42.666;23.392;2023-05-07T06:46:19;24.73;;;20.23;;
3101;SDS011;1561;42.666;23.392;2023-05-07T06:48:48;13.68;;;12.00;;
3101;SDS011;1561;42.666;23.392;2023-05-07T06:51:17;59.42;;;36.85;;
3101;SDS011;1561;42.666;23.392;2023-05-07T06:53:57;18.88;;;14.18;;
3101;SDS011;1561;42.666;23.392;2023-05-07T06:56:25;17.15;;;12.45;;
3101;SDS011;1561;42.666;23.392;2023-05-07T06:59:07;14.95;;;13.60;;
3101;SDS011;1561;42.666;23.392;2023-05-07T07:01:33;13.40;;;11.15;;
3101;SDS011;1561;42.666;23.392;2023-05-07T07:04:00;13.52;;;11.75;;
3101;SDS011;1561;42.666;23.392;2023-05-07T07:06:27;12.88;;;11.60;;
3101;SDS011;1561;42.666;23.392;2023-05-07T07:09:03;12.50;;;11.50;;
3101;SDS011;1561;42.666;23.392;2023-05-07T07:11:33;14.05;;;12.88;;
3101;SDS011;1561;42.666;23.392;2023-05-07T07:14:09;12.85;;;10.82;;
3101;SDS011;1561;42.666;23.392;2023-05-07T07:16:38;13.43;;;12.27;;
3101;SDS011;1561;42.666;23.392;2023-05-07T07:19:05;12.85;;;11.60;;
3101;SDS011;1561;42.666;23.392;2023-05-07T07:21:38;12.88;;;11.60;;
3101;SDS011;1561;42.666;23.392;2023-05-07T07:24:09;29.33;;;21.70;;
3101;SDS011;1561;42.666;23.392;2023-05-07T07:26:38;14.15;;;12.77;;
3101;SDS011;1561;42.666;23.392;2023-05-07T07:29:19;12.07;;;10.90;;
3101;SDS011;1561;42.666;23.392;2023-05-07T07:31:47;13.30;;;11.35;;
3101;SDS011;1561;42.666;23.392;2023-05-07T07:34:19;11.75;;;10.65;;
3101;SDS011;1561;42.666;23.392;2023-05-07T07:36:48;11.65;;;10.65;;
3101;SDS011;1561;42.666;23.392;2023-05-07T07:39:17;13.45;;;12.35;;
3101;SDS011;1561;42.666;23.392;2023-05-07T07:41:44;13.10;;;11.82;;
3101;SDS011;1561;42.666;23.392;2023-05-07T07:44:11;12.90;;;11.75;;
3101;SDS011;1561;42.666;23.392;2023-05-07T07:46:45;12.55;;;11.52;;
3101;SDS011;1561;42.666;23.392;2023-05-07T07:49:12;13.63;;;12.23;;
3101;SDS011;1561;42.666;23.392;2023-05-07T07:51:39;16.27;;;14.55;;
3101;SDS011;1561;42.666;23.392;2023-05-07T07:54:09;12.18;;;10.88;;
3101;SDS011;1561;42.666;23.392;2023-05-07T07:56:37;12.90;;;11.65;;
3101;SDS011;1561;42.666;23.392;2023-05-07T07:59:05;13.95;;;12.60;;
3101;SDS011;1561;42.666;23.392;2023-05-07T08:01:31;12.48;;;11.38;;
3101;SDS011;1561;42.666;23.392;2023-05-07T08:04:02;12.20;;;11.10;;
3101;SDS011;1561;42.666;23.392;2023-05-07T08:06:44;12.75;;;11.50;;
3101;SDS011;1561;42.666;23.392;2023-05-07T08:09:13;11.65;;;10.65;;
3101;SDS011;1561;42.666;23.392;2023-05-07T08:11:45;13.43;;;12.23;;
3101;SDS011;1561;42.666;23.392;2023-05-07T08:14:11;12.93;;;11.40;;
3101;SDS011;1561;42.666;23.392;2023-05-07T08:16:42;12.70;;;11.13;;
3101;SDS011;1561;42.666;23.392;2023-05-07T08:19:16;13.57;;;12.38;;
3101;SDS011;1561;42.666;23.392;2023-05-07T08:21:53;13.23;;;11.93;;
3101;SDS011;1561;42.666;23.392;2023-05-07T08:24:24;12.23;;;11.15;;
3101;SDS011;1561;42.666;23.392;2023-05-07T08:26:54;11.40;;;10.40;;
3101;SDS011;1561;42.666;23.392;2023-05-07T08:29:22;13.93;;;11.48;;
3101;SDS011;1561;42.666;23.392;2023-05-07T08:31:51;13.88;;;11.75;;
3101;SDS011;1561;42.666;23.392;2023-05-07T08:34:21;12.80;;;11.70;;
3101;SDS011;1561;42.666;23.392;2023-05-07T08:36:50;11.93;;;10.90;;
3101;SDS011;1561;42.666;23.392;2023-05-07T08:39:21;11.57;;;10.38;;
3101;SDS011;1561;42.666;23.392;2023-05-07T08:41:52;12.95;;;10.52;;
3101;SDS011;1561;42.666;23.392;2023-05-07T08:44:31;10.70;;;9.57;;
3101;SDS011;1561;42.666;23.392;2023-05-07T08:46:59;11.38;;;10.23;;
3101;SDS011;1561;42.666;23.392;2023-05-07T08:49:28;10.15;;;9.00;;
3101;SDS011;1561;42.666;23.392;2023-05-07T08:51:55;9.45;;;8.65;;
3101;SDS011;1561;42.666;23.392;2023-05-07T08:54:26;9.05;;;8.25;;
3101;SDS011;1561;42.666;23.392;2023-05-07T08:56:56;9.20;;;8.27;;
3101;SDS011;1561;42.666;23.392;2023-05-07T08:59:23;11.02;;;10.00;;
3101;SDS011;1561;42.666;23.392;2023-05-07T09:01:53;14.63;;;12.93;;
3101;SDS011;1561;42.666;23.392;2023-05-07T09:04:21;8.90;;;7.70;;
3101;SDS011;1561;42.666;23.392;2023-05-07T09:06:47;13.43;;;11.98;;
3101;SDS011;1561;42.666;23.392;2023-05-07T09:09:16;20.73;;;17.52;;
3101;SDS011;1561;42.666;23.392;2023-05-07T09:11:47;13.27;;;9.50;;
3101;SDS011;1561;42.666;23.392;2023-05-07T09:14:15;8.10;;;7.50;;
3101;SDS011;1561;42.666;23.392;2023-05-07T09:16:42;8.88;;;8.05;;
3101;SDS011;1561;42.666;23.392;2023-05-07T09:19:08;5.32;;;4.82;;
3101;SDS011;1561;42.666;23.392;2023-05-07T09:21:44;6.03;;;5.53;;
3101;SDS011;1561;42.666;23.392;2023-05-07T09:24:14;6.63;;;6.13;;
3101;SDS011;1561;42.666;23.392;2023-05-07T09:26:48;6.47;;;5.97;;
3101;SDS011;1561;42.666;23.392;2023-05-07T09:29:19;6.53;;;5.80;;
3101;SDS011;1561;42.666;23.392;2023-05-07T09:31:47;9.43;;;6.80;;
3101;SDS011;1561;42.666;23.392;2023-05-07T09:34:15;7.90;;;7.30;;
3101;SDS011;1561;42.666;23.392;2023-05-07T09:36:43;7.40;;;6.80;;
3101;SDS011;1561;42.666;23.392;2023-05-07T09:39:14;7.72;;;6.55;;
3101;SDS011;1561;42.666;23.392;2023-05-07T09:41:56;10.40;;;9.27;;
3101;SDS011;1561;42.666;23.392;2023-05-07T09:44:27;6.70;;;6.20;;
3101;SDS011;1561;42.666;23.392;2023-05-07T09:46:54;7.30;;;6.72;;
3101;SDS011;1561;42.666;23.392;2023-05-07T09:49:22;6.85;;;6.25;;
3101;SDS011;1561;42.666;23.392;2023-05-07T09:51:56;8.90;;;8.02;;
3101;SDS011;1561;42.666;23.392;2023-05-07T09:54:28;10.88;;;9.98;;
3101;SDS011;1561;42.666;23.392;2023-05-07T09:57:00;6.47;;;5.85;;
3101;SDS011;1561;42.666;23.392;2023-05-07T09:59:32;8.20;;;7.25;;
3101;SDS011;1561;42.666;23.392;2023-05-07T10:02:12;6.30;;;5.78;;
3101;SDS011;1561;42.666;23.392;2023-05-07T10:04:43;7.78;;;7.07;;
3101;SDS011;1561;42.666;23.392;2023-05-07T10:07:15;6.65;;;5.95;;
3101;SDS011;1561;42.666;23.392;2023-05-07T10:09:42;5.97;;;5.55;;
3101;SDS011;1561;42.666;23.392;2023-05-07T10:12:11;5.80;;;5.28;;
3101;SDS011;1561;42.666;23.392;2023-05-07T10:14:41;5.35;;;4.80;;
3101;SDS011;1561;42.666;23.392;2023-05-07T10:17:14;5.45;;;5.15;;
3101;SDS011;1561;42.666;23.392;2023-05-07T10:19:44;6.13;;;5.57;;
3101;SDS011;1561;42.666;23.392;2023-05-07T10:22:11;5.65;;;5.25;;
3101;SDS011;1561;42.666;23.392;2023-05-07T10:24:49;6.50;;;6.00;;
3101;SDS011;1561;42.666;23.392;2023-05-07T10:27:24;5.70;;;5.20;;
3101;SDS011;1561;42.666;23.392;2023-05-07T10:29:58;6.55;;;5.63;;
3101;SDS011;1561;42.666;23.392;2023-05-07T10:32:32;5.80;;;5.40;;
3101;SDS011;1561;42.666;23.392;2023-05-07T10:35:03;5.88;;;5.28;;
3101;SDS011;1561;42.666;23.392;2023-05-07T10:37:34;5.18;;;4.75;;
3101;SDS011;1561;42.666;23.392;2023-05-07T10:40:02;6.15;;;5.65;;
3101;SDS011;1561;42.666;23.392;2023-05-07T10:42:34;5.65;;;5.25;;
3101;SDS011;1561;42.666;23.392;2023-05-07T10:45:26;6.15;;;5.63;;
3101;SDS011;1561;42.666;23.392;2023-05-07T10:48:07;5.90;;;5.47;;
3101;SDS011;1561;42.666;23.392;2023-05-07T10:50:40;7.60;;;6.22;;
3101;SDS011;1561;42.666;23.392;2023-05-07T10:53:21;6.45;;;6.05;;
3101;SDS011;1561;42.666;23.392;2023-05-07T10:55:51;6.45;;;5.90;;
3101;SDS011;1561;42.666;23.392;2023-05-07T10:58:27;6.97;;;5.80;;
3101;SDS011;1561;42.666;23.392;2023-05-07T11:00:59;5.43;;;5.07;;
3101;SDS011;1561;42.666;23.392;2023-05-07T11:03:32;5.97;;;5.57;;
3101;SDS011;1561;42.666;23.392;2023-05-07T11:06:09;6.20;;;5.60;;
3101;SDS011;1561;42.666;23.392;2023-05-07T11:08:53;6.18;;;5.68;;
3101;SDS011;1561;42.666;23.392;2023-05-07T11:14:06;6.65;;;6.15;;
3101;SDS011;1561;42.666;23.392;2023-05-07T11:16:36;6.72;;;6.20;;
3101;SDS011;1561;42.666;23.392;2023-05-07T11:19:04;5.97;;;5.47;;
3101;SDS011;1561;42.666;23.392;2023-05-07T11:21:34;5.78;;;5.38;;
3101;SDS011;1561;42.666;23.392;2023-05-07T11:24:18;6.80;;;6.30;;
3101;SDS011;1561;42.666;23.392;2023-05-07T11:26:49;7.97;;;6.30;;
3101;SDS011;1561;42.666;23.392;2023-05-07T11:29:17;7.35;;;6.85;;
3101;SDS011;1561;42.666;23.392;2023-05-07T11:31:57;8.38;;;6.88;;
3101;SDS011;1561;42.666;23.392;2023-05-07T11:34:30;8.90;;;6.30;;
3101;SDS011;1561;42.666;23.392;2023-05-07T11:37:01;10.68;;;6.90;;
3101;SDS011;1561;42.666;23.392;2023-05-07T11:39:32;9.20;;;7.15;;
3101;SDS011;1561;42.666;23.392;2023-05-07T11:42:01;8.15;;;7.40;;
3101;SDS011;1561;42.666;23.392;2023-05-07T11:44:43;5.97;;;5.55;;
3101;SDS011;1561;42.666;23.392;2023-05-07T11:50:02;7.13;;;6.53;;
3101;SDS011;1561;42.666;23.392;2023-05-07T11:52:29;6.75;;;6.32;;
3101;SDS011;1561;42.666;23.392;2023-05-07T11:54:57;7.25;;;6.75;;
3101;SDS011;1561;42.666;23.392;2023-05-07T11:57:26;10.30;;;8.65;;
3101;SDS011;1561;42.666;23.392;2023-05-07T11:59:55;6.93;;;6.47;;
3101;SDS011;1561;42.666;23.392;2023-05-07T12:02:26;17.40;;;13.63;;
3101;SDS011;1561;42.666;23.392;2023-05-07T12:04:59;8.13;;;7.18;;
3101;SDS011;1561;42.666;23.392;2023-05-07T12:07:27;7.30;;;6.70;;
3101;SDS011;1561;42.666;23.392;2023-05-07T12:09:58;7.90;;;6.97;;
3101;SDS011;1561;42.666;23.392;2023-05-07T12:12:24;6.70;;;6.20;;
3101;SDS011;1561;42.666;23.392;2023-05-07T12:14:54;8.45;;;7.75;;
3101;SDS011;1561;42.666;23.392;2023-05-07T12:17:22;7.90;;;7.03;;
3101;SDS011;1561;42.666;23.392;2023-05-07T12:19:49;7.47;;;6.78;;
3101;SDS011;1561;42.666;23.392;2023-05-07T12:22:20;6.75;;;6.35;;
3101;SDS011;1561;42.666;23.392;2023-05-07T12:24:57;11.52;;;7.35;;
3101;SDS011;1561;42.666;23.392;2023-05-07T12:27:25;7.43;;;6.88;;
3101;SDS011;1561;42.666;23.392;2023-05-07T12:29:52;7.70;;;7.10;;
3101;SDS011;1561;42.666;23.392;2023-05-07T12:32:20;8.20;;;7.47;;
3101;SDS011;1561;42.666;23.392;2023-05-07T12:34:53;9.27;;;7.80;;
3101;SDS011;1561;42.666;23.392;2023-05-07T12:37:24;7.20;;;6.70;;
3101;SDS011;1561;42.666;23.392;2023-05-07T12:40:03;8.73;;;7.95;;
3101;SDS011;1561;42.666;23.392;2023-05-07T12:42:33;7.65;;;7.15;;
3101;SDS011;1561;42.666;23.392;2023-05-07T12:45:07;7.03;;;6.35;;
3101;SDS011;1561;42.666;23.392;2023-05-07T12:47:36;7.60;;;7.05;;
3101;SDS011;1561;42.666;23.392;2023-05-07T12:50:05;7.65;;;6.90;;
3101;SDS011;1561;42.666;23.392;2023-05-07T12:52:46;7.32;;;6.78;;
3101;SDS011;1561;42.666;23.392;2023-05-07T12:55:14;7.18;;;6.47;;
3101;SDS011;1561;42.666;23.392;2023-05-07T12:57:45;6.55;;;6.05;;
3101;SDS011;1561;42.666;23.392;2023-05-07T13:00:15;7.00;;;6.35;;
3101;SDS011;1561;42.666;23.392;2023-05-07T13:02:43;5.78;;;5.38;;
3101;SDS011;1561;42.666;23.392;2023-05-07T13:05:12;6.40;;;5.80;;
3101;SDS011;1561;42.666;23.392;2023-05-07T13:07:48;5.70;;;5.20;;
3101;SDS011;1561;42.666;23.392;2023-05-07T13:10:18;5.75;;;5.10;;
3101;SDS011;1561;42.666;23.392;2023-05-07T13:12:46;5.50;;;5.10;;
3101;SDS011;1561;42.666;23.392;2023-05-07T13:15:14;5.75;;;5.35;;
3101;SDS011;1561;42.666;23.392;2023-05-07T13:17:42;4.45;;;4.15;;
3101;SDS011;1561;42.666;23.392;2023-05-07T13:20:10;5.40;;;5.10;;
3101;SDS011;1561;42.666;23.392;2023-05-07T13:22:39;5.70;;;5.20;;
3101;SDS011;1561;42.666;23.392;2023-05-07T13:25:08;5.85;;;5.35;;
3101;SDS011;1561;42.666;23.392;2023-05-07T13:27:43;6.68;;;6.18;;
3101;SDS011;1561;42.666;23.392;2023-05-07T13:30:11;5.10;;;4.70;;
3101;SDS011;1561;42.666;23.392;2023-05-07T13:32:40;6.82;;;6.32;;
3101;SDS011;1561;42.666;23.392;2023-05-07T13:35:11;5.43;;;5.03;;
3101;SDS011;1561;42.666;23.392;2023-05-07T13:37:40;4.78;;;4.38;;
3101;SDS011;1561;42.666;23.392;2023-05-07T13:40:28;4.60;;;4.30;;
3101;SDS011;1561;42.666;23.392;2023-05-07T13:43:01;5.72;;;4.53;;
3101;SDS011;1561;42.666;23.392;2023-05-07T13:45:29;4.60;;;4.30;;
3101;SDS011;1561;42.666;23.392;2023-05-07T13:48:00;4.82;;;4.53;;
3101;SDS011;1561;42.666;23.392;2023-05-07T13:50:30;5.95;;;5.05;;
3101;SDS011;1561;42.666;23.392;2023-05-07T13:53:00;4.90;;;4.60;;
3101;SDS011;1561;42.666;23.392;2023-05-07T13:55:42;4.78;;;4.47;;
3101;SDS011;1561;42.666;23.392;2023-05-07T13:58:10;6.00;;;5.20;;
3101;SDS011;1561;42.666;23.392;2023-05-07T14:00:40;5.50;;;5.07;;
3101;SDS011;1561;42.666;23.392;2023-05-07T14:03:17;5.75;;;5.25;;
3101;SDS011;1561;42.666;23.392;2023-05-07T14:05:57;5.25;;;4.95;;
3101;SDS011;1561;42.666;23.392;2023-05-07T14:08:34;4.93;;;4.63;;
3101;SDS011;1561;42.666;23.392;2023-05-07T14:16:34;6.32;;;4.88;;
3101;SDS011;1561;42.666;23.392;2023-05-07T14:19:04;5.18;;;4.68;;
3101;SDS011;1561;42.666;23.392;2023-05-07T14:21:31;5.10;;;4.60;;
3101;SDS011;1561;42.666;23.392;2023-05-07T14:24:03;5.70;;;5.18;;
3101;SDS011;1561;42.666;23.392;2023-05-07T14:26:31;5.70;;;5.28;;
3101;SDS011;1561;42.666;23.392;2023-05-07T14:29:03;5.25;;;4.95;;
3101;SDS011;1561;42.666;23.392;2023-05-07T14:31:37;7.18;;;6.57;;
3101;SDS011;1561;42.666;23.392;2023-05-07T14:34:07;6.05;;;5.55;;
3101;SDS011;1561;42.666;23.392;2023-05-07T14:36:41;6.63;;;5.05;;
3101;SDS011;1561;42.666;23.392;2023-05-07T14:39:14;5.78;;;5.38;;
3101;SDS011;1561;42.666;23.392;2023-05-07T14:41:51;5.70;;;5.20;;
3101;SDS011;1561;42.666;23.392;2023-05-07T14:44:20;5.75;;;5.35;;
3101;SDS011;1561;42.666;23.392;2023-05-07T14:46:52;7.93;;;5.95;;
3101;SDS011;1561;42.666;23.392;2023-05-07T14:49:19;5.25;;;4.78;;
3101;SDS011;1561;42.666;23.392;2023-05-07T14:51:53;5.53;;;5.10;;
3101;SDS011;1561;42.666;23.392;2023-05-07T14:54:23;4.93;;;4.43;;
3101;SDS011;1561;42.666;23.392;2023-05-07T14:56:53;4.93;;;4.63;;
3101;SDS011;1561;42.666;23.392;2023-05-07T14:59:19;5.07;;;4.57;;
3101;SDS011;1561;42.666;23.392;2023-05-07T15:01:48;4.72;;;4.43;;
3101;SDS011;1561;42.666;23.392;2023-05-07T15:04:17;5.13;;;4.82;;
3101;SDS011;1561;42.666;23.392;2023-05-07T15:06:43;5.72;;;5.32;;
3101;SDS011;1561;42.666;23.392;2023-05-07T15:09:18;5.97;;;5.47;;
3101;SDS011;1561;42.666;23.392;2023-05-07T15:11:45;5.18;;;4.88;;
3101;SDS011;1561;42.666;23.392;2023-05-07T15:14:16;7.32;;;5.20;;
3101;SDS011;1561;42.666;23.392;2023-05-07T15:16:52;6.05;;;5.63;;
3101;SDS011;1561;42.666;23.392;2023-05-07T15:19:24;4.90;;;4.60;;
3101;SDS011;1561;42.666;23.392;2023-05-07T15:21:54;6.00;;;5.50;;